createdAt,value
2019-05-25T00:01:59.640Z,11.80
2019-05-25T00:04:29.648Z,11.80
2019-05-25T00:06:59.469Z,11.80
2019-05-25T00:09:30.384Z,11.80
2019-05-25T00:12:00.350Z,11.70
2019-05-25T00:14:30.518Z,11.70
2019-05-25T00:17:00.355Z,11.60
2019-05-25T00:19:30.270Z,11.70
2019-05-25T00:22:01.403Z,11.60
2019-05-25T00:24:31.239Z,11.60
2019-05-25T00:27:01.130Z,11.60
2019-05-25T00:29:32.553Z,11.60
2019-05-25T00:32:02.440Z,11.60
2019-05-25T00:34:32.264Z,11.60
2019-05-25T00:37:02.316Z,11.60
2019-05-25T00:39:33.745Z,11.60
2019-05-25T00:42:03.630Z,11.50
2019-05-25T00:44:35.202Z,11.50
2019-05-25T00:47:05.862Z,11.50
2019-05-25T00:49:35.723Z,11.50
2019-05-25T00:52:05.582Z,11.50
2019-05-25T00:54:35.566Z,11.40
2019-05-25T00:57:05.333Z,11.50
2019-05-25T00:59:35.899Z,11.40
2019-05-25T01:02:05.829Z,11.40
2019-05-25T01:04:35.664Z,11.40
2019-05-25T01:07:05.551Z,11.40
2019-05-25T01:09:35.323Z,11.30
2019-05-25T01:12:05.488Z,11.30
2019-05-25T01:14:35.458Z,11.30
2019-05-25T01:17:05.329Z,11.30
2019-05-25T01:19:35.294Z,11.30
2019-05-25T01:22:05.202Z,11.30
2019-05-25T01:24:43.957Z,11.30
2019-05-25T01:27:06.904Z,11.30
2019-05-25T01:29:36.696Z,11.30
2019-05-25T01:32:06.524Z,11.30
2019-05-25T01:34:36.373Z,11.20
2019-05-25T01:37:06.440Z,11.30
2019-05-25T01:39:36.339Z,11.20
2019-05-25T01:42:06.179Z,11.20
2019-05-25T01:44:36.225Z,11.20
2019-05-25T01:47:06.211Z,11.20
2019-05-25T01:49:36.166Z,11.20
2019-05-25T01:52:06.317Z,11.10
2019-05-25T01:54:39.263Z,11.20
2019-05-25T01:57:09.284Z,11.20
2019-05-25T01:59:40.740Z,11.20
2019-05-25T02:02:10.774Z,11.20
2019-05-25T02:04:43.338Z,11.10
2019-05-25T02:07:13.987Z,11.10
2019-05-25T02:09:44.496Z,11.10
2019-05-25T02:12:14.408Z,11.10
2019-05-25T02:14:45.961Z,11.10
2019-05-25T02:17:16.630Z,11.10
2019-05-25T02:19:48.972Z,11.00
2019-05-25T02:22:19.081Z,11.00
2019-05-25T02:24:51.633Z,11.10
2019-05-25T02:27:21.476Z,11.10
2019-05-25T02:29:52.820Z,11.00
2019-05-25T02:32:22.767Z,11.10
2019-05-25T02:34:52.608Z,11.00
2019-05-25T02:37:22.645Z,11.00
2019-05-25T02:39:53.325Z,11.00
2019-05-25T02:42:23.262Z,11.00
2019-05-25T02:44:59.939Z,11.00
2019-05-25T02:47:29.835Z,11.00
2019-05-25T02:50:01.162Z,11.00
2019-05-25T02:52:32.704Z,10.90
2019-05-25T02:55:02.674Z,10.90
2019-05-25T02:57:32.555Z,10.90
2019-05-25T03:00:02.468Z,10.90
2019-05-25T03:02:33.924Z,10.80
2019-05-25T03:05:07.405Z,10.90
2019-05-25T03:07:40.357Z,10.80
2019-05-25T03:10:10.596Z,10.80
2019-05-25T03:12:41.731Z,10.80
2019-05-25T03:15:11.906Z,10.80
2019-05-25T03:17:41.842Z,10.80
2019-05-25T03:20:12.076Z,10.80
2019-05-25T03:22:48.292Z,10.80
2019-05-25T03:25:18.561Z,10.70
2019-05-25T03:27:49.319Z,10.70
2019-05-25T03:30:32.611Z,10.70
2019-05-25T03:33:02.672Z,10.60
2019-05-25T03:35:33.795Z,10.60
2019-05-25T03:38:05.310Z,10.60
2019-05-25T03:40:38.689Z,10.60
2019-05-25T03:43:09.205Z,10.50
2019-05-25T03:45:42.516Z,10.50
2019-05-25T03:48:17.813Z,10.50
2019-05-25T03:50:48.351Z,10.50
2019-05-25T03:53:21.226Z,10.50
2019-05-25T03:56:04.813Z,10.50
2019-05-25T03:58:24.838Z,10.50
2019-05-25T04:00:56.903Z,10.40
2019-05-25T04:03:28.787Z,10.50
2019-05-25T04:06:00.266Z,10.50
2019-05-25T04:08:31.063Z,10.50
2019-05-25T04:11:00.993Z,10.40
2019-05-25T04:13:40.285Z,10.40
2019-05-25T04:16:10.297Z,10.40
2019-05-25T04:18:42.726Z,10.30
2019-05-25T04:21:13.924Z,10.30
2019-05-25T04:23:44.865Z,10.30
2019-05-25T04:26:22.656Z,10.30
2019-05-25T04:28:51.087Z,10.30
2019-05-25T04:31:22.959Z,10.30
2019-05-25T04:33:57.447Z,10.40
2019-05-25T04:36:28.735Z,10.40
2019-05-25T04:39:00.518Z,10.40
2019-05-25T04:41:31.352Z,10.40
2019-05-25T04:44:01.292Z,10.40
2019-05-25T04:46:31.219Z,10.40
2019-05-25T04:49:02.648Z,10.50
2019-05-25T04:51:35.754Z,10.50
2019-05-25T04:54:05.781Z,10.60
2019-05-25T04:56:39.908Z,10.60
2019-05-25T04:59:10.032Z,10.60
2019-05-25T05:01:41.281Z,10.70
2019-05-25T05:04:15.203Z,10.80
2019-05-25T05:06:49.832Z,10.80
2019-05-25T05:09:20.325Z,10.90
2019-05-25T05:12:05.886Z,11.00
2019-05-25T05:14:43.241Z,11.10
2019-05-25T05:17:33.913Z,11.20
2019-05-25T05:20:09.016Z,11.30
2019-05-25T05:25:46.554Z,11.50
2019-05-25T05:28:21.450Z,11.60
2019-05-25T05:33:49.905Z,11.90
2019-05-25T05:36:24.157Z,12.10
2019-05-25T05:39:03.470Z,12.20
2019-05-25T05:41:52.351Z,12.30
2019-05-25T05:44:45.129Z,12.40
2019-05-25T05:47:31.518Z,12.30
2019-05-25T05:50:26.957Z,12.50
2019-05-25T05:53:12.850Z,12.50
2019-05-25T06:29:31.926Z,13.10
2019-05-25T06:54:06.639Z,13.90
2019-05-25T07:32:58.661Z,14.70
2019-05-25T07:35:52.802Z,14.70
2019-05-25T07:38:30.956Z,14.70
2019-05-25T07:41:13.247Z,14.60
2019-05-25T07:43:48.840Z,14.60
2019-05-25T07:46:33.477Z,14.60
2019-05-25T07:52:07.553Z,14.70
2019-05-25T07:55:09.305Z,14.70
2019-05-25T08:01:09.062Z,15.00
2019-05-25T08:03:39.646Z,15.10
2019-05-25T08:06:12.298Z,15.40
2019-05-25T08:17:48.450Z,15.60
2019-05-25T08:20:25.141Z,15.70
2019-05-25T08:38:10.844Z,16.10
2019-05-25T08:40:52.667Z,16.10
2019-05-25T08:49:34.679Z,16.30
2019-05-25T08:55:10.801Z,16.60
2019-05-25T09:23:54.145Z,17.50
2019-05-25T09:30:01.151Z,17.60
2019-05-25T09:35:48.225Z,17.70
2019-05-25T09:38:23.581Z,17.60
2019-05-25T09:41:00.836Z,17.60
2019-05-25T09:46:37.105Z,17.90
2019-05-25T09:49:09.447Z,17.90
2019-05-25T09:51:44.045Z,17.80
2019-05-25T09:54:31.703Z,17.80
2019-05-25T10:13:45.689Z,18.80
2019-05-25T10:16:54.011Z,18.80
2019-05-25T10:22:25.971Z,19.10
2019-05-25T10:31:13.438Z,19.90
2019-05-25T10:33:51.052Z,20.10
2019-05-25T10:36:42.846Z,20.30
2019-05-25T10:39:25.515Z,20.40
2019-05-25T10:42:43.388Z,20.50
2019-05-25T10:45:17.463Z,20.10
2019-05-25T10:47:51.227Z,20.30
2019-05-25T10:57:19.974Z,20.30
2019-05-25T10:59:58.931Z,20.10
2019-05-25T11:02:36.662Z,19.90
2019-05-25T11:05:12.072Z,19.80
2019-05-25T11:07:48.699Z,19.70
2019-05-25T11:10:24.056Z,19.80
2019-05-25T11:13:01.736Z,19.90
2019-05-25T11:15:35.326Z,19.90
2019-05-25T11:18:05.172Z,19.90
2019-05-25T11:23:42.997Z,19.90
2019-05-25T11:26:14.141Z,19.90
2019-05-25T11:28:44.059Z,19.70
2019-05-25T11:31:20.903Z,19.70
2019-05-25T11:34:05.335Z,19.90
2019-05-25T11:36:38.660Z,20.00
2019-05-25T11:39:10.203Z,20.00
2019-05-25T11:41:40.219Z,20.20
2019-05-25T11:44:22.546Z,20.20
2019-05-25T11:46:54.386Z,20.20
2019-05-25T11:49:26.440Z,20.20
2019-05-25T11:52:00.045Z,20.20
2019-05-25T11:54:37.457Z,20.30
2019-05-25T11:57:17.315Z,20.30
2019-05-25T11:59:49.325Z,20.40
2019-05-25T12:02:25.113Z,20.50
2019-05-25T12:04:57.546Z,20.40
2019-05-25T12:07:35.402Z,20.60
2019-05-25T12:10:10.125Z,20.40
2019-05-25T12:15:40.193Z,20.40
2019-05-25T12:18:17.368Z,20.60
2019-05-25T12:20:50.985Z,20.70
2019-05-25T12:23:23.899Z,20.90
2019-05-25T12:25:58.520Z,21.20
2019-05-25T12:28:53.756Z,21.40
2019-05-25T12:31:27.036Z,21.50
2019-05-25T12:33:57.125Z,21.50
2019-05-25T12:36:50.769Z,21.60
2019-05-25T12:39:26.437Z,21.60
2019-05-25T12:41:58.097Z,21.70
2019-05-25T12:44:29.002Z,21.90
2019-05-25T12:47:01.653Z,21.70
2019-05-25T12:49:48.495Z,21.60
2019-05-25T12:52:03.054Z,21.40
2019-05-25T12:54:34.393Z,21.00
2019-05-25T12:57:05.839Z,20.70
2019-05-25T12:59:38.441Z,20.40
2019-05-25T13:02:11.252Z,20.30
2019-05-25T13:04:50.087Z,20.20
2019-05-25T13:07:21.806Z,20.00
2019-05-25T13:10:20.785Z,19.90
2019-05-25T13:13:02.381Z,19.90
2019-05-25T13:15:39.813Z,19.90
2019-05-25T13:18:23.216Z,20.00
2019-05-25T13:23:59.296Z,19.90
2019-05-25T13:26:32.986Z,19.90
2019-05-25T13:29:08.754Z,19.80
2019-05-25T13:31:36.120Z,19.90
2019-05-25T13:34:08.667Z,19.90
2019-05-25T13:36:39.220Z,19.90
2019-05-25T13:39:11.576Z,19.90
2019-05-25T13:41:42.629Z,19.90
2019-05-25T13:44:13.406Z,19.70
2019-05-25T13:46:43.358Z,19.50
2019-05-25T13:49:13.778Z,19.60
2019-05-25T13:51:43.678Z,19.50
2019-05-25T13:54:16.130Z,19.50
2019-05-25T13:56:46.136Z,19.50
2019-05-25T13:59:17.914Z,19.40
2019-05-25T14:01:47.753Z,19.30
2019-05-25T14:04:18.298Z,19.10
2019-05-25T14:06:51.467Z,19.20
2019-05-25T14:09:22.516Z,19.30
2019-05-25T14:11:52.409Z,19.10
2019-05-25T14:14:24.376Z,19.10
2019-05-25T14:16:54.056Z,19.10
2019-05-25T14:19:24.120Z,19.10
2019-05-25T14:22:18.531Z,19.30
2019-05-25T14:24:49.107Z,19.20
2019-05-25T14:27:20.317Z,19.30
2019-05-25T14:29:54.282Z,19.40
2019-05-25T14:32:25.113Z,19.50
2019-05-25T14:34:55.904Z,19.70
2019-05-25T14:37:26.192Z,19.60
2019-05-25T14:39:59.365Z,19.50
2019-05-25T14:42:29.288Z,19.30
2019-05-25T14:45:03.822Z,19.40
2019-05-25T14:47:37.637Z,19.50
2019-05-25T14:50:10.013Z,19.60
2019-05-25T14:52:43.204Z,19.60
2019-05-25T14:55:14.110Z,19.70
2019-05-25T14:57:46.991Z,19.80
2019-05-25T15:00:18.320Z,20.00
2019-05-25T15:02:49.228Z,20.10
2019-05-25T15:05:24.155Z,20.30
2019-05-25T15:17:09.685Z,20.90
2019-05-25T15:19:41.873Z,20.90
2019-05-25T15:25:20.518Z,20.90
2019-05-25T15:31:01.137Z,21.00
2019-05-25T15:33:54.378Z,21.10
2019-05-25T15:52:10.720Z,21.00
2019-05-25T16:10:32.233Z,21.00
2019-05-25T16:34:57.048Z,20.90
2019-05-25T16:37:30.149Z,21.00
2019-05-25T16:40:01.557Z,20.80
2019-05-25T16:42:44.437Z,20.70
2019-05-25T16:45:17.866Z,20.70
2019-05-25T16:47:57.045Z,20.70
2019-05-25T17:14:44.165Z,20.50
2019-05-25T17:26:55.223Z,20.30
2019-05-25T17:35:40.329Z,20.20
2019-05-25T17:44:28.121Z,20.10
2019-05-25T17:55:15.460Z,19.90
2019-05-25T18:01:02.427Z,19.80
2019-05-25T18:04:06.679Z,19.70
2019-05-25T18:06:41.227Z,19.50
2019-05-25T18:12:27.542Z,19.50
2019-05-25T18:26:49.222Z,19.20
2019-05-25T18:29:23.636Z,19.10
2019-05-25T18:31:59.629Z,19.10
2019-05-25T18:34:45.462Z,19.10
2019-05-25T18:37:22.426Z,19.10
2019-05-25T18:39:57.677Z,19.10
2019-05-25T18:42:30.853Z,19.10
2019-05-25T18:45:09.369Z,19.00
2019-05-25T18:47:39.917Z,19.00
2019-05-25T18:50:16.120Z,19.00
2019-05-25T18:52:48.056Z,18.90
2019-05-25T18:55:22.989Z,18.90
2019-05-25T18:57:56.104Z,18.90
2019-05-25T19:00:27.991Z,18.80
2019-05-25T19:03:00.386Z,18.70
2019-05-25T19:05:32.769Z,18.60
2019-05-25T19:08:03.415Z,18.50
2019-05-25T19:10:33.432Z,18.40
2019-05-25T19:13:04.395Z,18.30
2019-05-25T19:15:34.830Z,18.30
2019-05-25T19:18:04.864Z,18.20
2019-05-25T19:20:36.826Z,18.10
2019-05-25T19:23:11.486Z,18.10
2019-05-25T19:25:41.977Z,18.00
2019-05-25T19:28:13.069Z,18.00
2019-05-25T19:30:42.987Z,17.90
2019-05-25T19:33:16.891Z,17.80
2019-05-25T19:35:48.409Z,17.80
2019-05-25T19:38:18.347Z,17.80
2019-05-25T19:40:51.468Z,17.80
2019-05-25T19:43:23.948Z,17.70
2019-05-25T19:45:56.089Z,17.70
2019-05-25T19:48:27.506Z,17.60
2019-05-25T19:50:57.457Z,17.60
2019-05-25T19:53:28.972Z,17.60
2019-05-25T19:56:01.103Z,17.60
2019-05-25T19:58:33.725Z,17.60
2019-05-25T20:01:06.509Z,17.60
2019-05-25T20:03:38.462Z,17.60
2019-05-25T20:06:09.921Z,17.50
2019-05-25T20:08:42.669Z,17.50
2019-05-25T20:11:13.465Z,17.40
2019-05-25T20:13:46.868Z,17.40
2019-05-25T20:16:17.769Z,17.40
2019-05-25T20:18:48.856Z,17.40
2019-05-25T20:21:21.058Z,17.30
2019-05-25T20:23:52.738Z,17.20
2019-05-25T20:26:23.291Z,17.10
2019-05-25T20:28:53.605Z,17.00
2019-05-25T20:31:24.204Z,17.00
2019-05-25T20:33:55.171Z,17.00
2019-05-25T20:36:25.111Z,16.90
2019-05-25T20:38:55.076Z,16.90
2019-05-25T20:41:25.095Z,16.80
2019-05-25T20:43:56.243Z,16.90
2019-05-25T20:46:28.096Z,16.90
2019-05-25T20:48:58.117Z,16.80
2019-05-25T20:51:28.756Z,16.80
2019-05-25T20:54:01.375Z,16.80
2019-05-25T20:56:31.683Z,16.80
2019-05-25T20:59:01.575Z,16.80
2019-05-25T21:01:32.589Z,16.70
2019-05-25T21:04:05.767Z,16.70
2019-05-25T21:06:36.314Z,16.60
2019-05-25T21:09:09.236Z,16.50
2019-05-25T21:11:39.047Z,16.40
2019-05-25T21:14:09.858Z,16.30
2019-05-25T21:16:41.727Z,16.30
2019-05-25T21:19:11.711Z,16.30
2019-05-25T21:21:41.639Z,16.20
2019-05-25T21:24:11.632Z,16.20
2019-05-25T21:26:44.694Z,16.10
2019-05-25T21:29:15.380Z,16.10
2019-05-25T21:31:45.293Z,16.10
2019-05-25T21:34:15.297Z,16.00
2019-05-25T21:36:45.758Z,15.90
2019-05-25T21:39:16.122Z,15.90
2019-05-25T21:41:46.123Z,15.90
2019-05-25T21:44:18.668Z,15.80
2019-05-25T21:46:49.276Z,15.80
2019-05-25T21:49:19.651Z,15.70
2019-05-25T21:51:50.398Z,15.60
2019-05-25T21:54:21.207Z,15.60
2019-05-25T21:56:51.809Z,15.50
2019-05-25T21:59:22.355Z,15.50
2019-05-25T22:01:52.368Z,15.50
2019-05-25T22:04:25.113Z,15.40
2019-05-25T22:06:57.330Z,15.30
2019-05-25T22:09:27.226Z,15.30
2019-05-25T22:12:00.009Z,15.20
2019-05-25T22:14:30.870Z,15.20
2019-05-25T22:17:01.352Z,15.10
2019-05-25T22:19:32.473Z,15.10
2019-05-25T22:22:03.370Z,15.00
2019-05-25T22:24:33.323Z,15.00
2019-05-25T22:27:07.028Z,14.90
2019-05-25T22:29:38.078Z,14.90
2019-05-25T22:32:08.601Z,14.80
2019-05-25T22:34:39.610Z,14.80
2019-05-25T22:37:10.429Z,14.80
2019-05-25T22:39:41.414Z,14.80
2019-05-25T22:42:11.451Z,14.70
2019-05-25T22:44:42.198Z,14.80
2019-05-25T22:47:12.967Z,14.70
2019-05-25T22:49:46.085Z,14.70
2019-05-25T22:52:16.549Z,14.70
2019-05-25T22:54:54.122Z,14.60
2019-05-25T22:57:27.217Z,14.60
2019-05-25T22:59:57.168Z,14.50
2019-05-25T23:02:28.527Z,14.40
2019-05-25T23:05:06.842Z,14.40
2019-05-25T23:07:35.877Z,14.40
2019-05-25T23:10:08.819Z,14.30
2019-05-25T23:12:39.371Z,14.30
2019-05-25T23:15:09.928Z,14.30
2019-05-25T23:17:40.238Z,14.20
2019-05-25T23:20:11.219Z,14.20
2019-05-25T23:22:44.645Z,14.20
2019-05-25T23:25:19.361Z,14.20
2019-05-25T23:27:49.303Z,14.10
2019-05-25T23:30:22.152Z,14.10
2019-05-25T23:32:52.958Z,14.00
2019-05-25T23:35:24.408Z,14.00
2019-05-25T23:37:55.832Z,13.90
2019-05-25T23:40:38.873Z,13.90
2019-05-25T23:43:11.242Z,13.80
2019-05-25T23:45:44.578Z,13.70
2019-05-25T23:48:14.993Z,13.70
2019-05-25T23:50:46.389Z,13.70
2019-05-25T23:53:19.990Z,13.60
2019-05-25T23:55:51.678Z,13.60
2019-05-25T23:58:22.568Z,13.50
